Time;durP1;ratioP1;P1;durP2;ratioP2;P2;SDS_P1;SDS_P2;PMS_P1;PMS_P2;Temp;Humidity;BMP_temperature;BMP_pressure;BME280_temperature;BME280_humidity;BME280_pressure;Samples;Min_cycle;Max_cycle;Signal;HPM_P1;HPM_P2
2021/09/15 00:01:39;;;;;;;40.53;25.50;;;;;;;17.40;100.00;101188.69;6179856;23;20005;-76
2021/09/15 00:04:04;;;;;;;42.65;26.45;;;;;;;17.41;100.00;101191.34;6183256;23;20076;-77
2021/09/15 00:06:30;;;;;;;43.67;27.70;;;;;;;17.42;100.00;101187.81;6183690;23;20335;-78
2021/09/15 00:08:55;;;;;;;49.80;30.90;;;;;;;17.42;100.00;101190.47;6182973;23;20475;-77
2021/09/15 00:11:22;;;;;;;50.35;29.70;;;;;;;17.45;100.00;101197.53;6182074;23;20020;-79
2021/09/15 00:13:48;;;;;;;52.95;31.20;;;;;;;17.45;100.00;101193.09;6183532;23;20025;-77
2021/09/15 00:16:13;;;;;;;53.25;31.15;;;;;;;17.48;100.00;101193.06;6183194;23;20013;-75
2021/09/15 00:18:39;;;;;;;47.42;30.30;;;;;;;17.51;100.00;101186.84;6183330;23;20458;-77
2021/09/15 00:21:04;;;;;;;47.33;30.88;;;;;;;17.55;100.00;101190.38;6182594;23;20436;-78
2021/09/15 00:23:30;;;;;;;49.40;31.30;;;;;;;17.54;100.00;101181.53;6183313;23;20008;-77
2021/09/15 00:25:55;;;;;;;47.83;31.52;;;;;;;17.57;100.00;101184.16;6183049;23;20317;-76
2021/09/15 00:28:21;;;;;;;48.83;30.48;;;;;;;17.56;100.00;101177.06;6182211;23;20015;-76
2021/09/15 00:30:47;;;;;;;48.92;30.83;;;;;;;17.57;100.00;101170.84;6183182;23;20013;-77
2021/09/15 00:33:12;;;;;;;46.22;30.25;;;;;;;17.59;100.00;101178.81;6182484;23;20008;-76
2021/09/15 00:35:38;;;;;;;45.22;28.10;;;;;;;17.60;100.00;101175.28;6183233;23;20365;-77
2021/09/15 00:38:03;;;;;;;48.85;32.53;;;;;;;17.55;100.00;101171.75;6183259;23;20501;-77
2021/09/15 00:40:32;;;;;;;42.10;28.80;;;;;;;17.48;100.00;101171.78;6182953;23;20028;-78
2021/09/15 00:42:58;;;;;;;43.28;29.83;;;;;;;17.41;100.00;101159.44;6182886;23;20005;-77
2021/09/15 00:45:24;;;;;;;50.47;31.65;;;;;;;17.38;100.00;101169.19;6181572;23;20016;-76
2021/09/15 00:47:50;;;;;;;46.53;28.92;;;;;;;17.35;100.00;101167.47;6182977;23;20012;-75
2021/09/15 00:50:16;;;;;;;49.80;30.00;;;;;;;17.31;100.00;101168.38;6182903;23;20001;-77
2021/09/15 00:52:44;;;;;;;49.03;30.73;;;;;;;17.26;100.00;101167.50;6183631;23;20005;-76
2021/09/15 00:55:14;;;;;;;46.13;30.17;;;;;;;17.17;100.00;101172.00;6183341;23;20076;-77
2021/09/15 00:57:40;;;;;;;45.55;28.95;;;;;;;17.10;100.00;101175.56;6183678;23;20001;-77
2021/09/15 01:00:31;;;;;;;52.25;31.75;;;;;;;17.03;100.00;101179.16;6179811;23;20324;-77
2021/09/15 01:02:56;;;;;;;54.03;32.38;;;;;;;16.96;100.00;101175.63;6182165;23;20040;-76
2021/09/15 01:05:23;;;;;;;54.75;32.70;;;;;;;16.93;100.00;101173.00;6183342;23;20005;-78
2021/09/15 01:07:51;;;;;;;55.10;32.08;;;;;;;16.88;100.00;101173.88;6157518;23;20068;-78
2021/09/15 01:10:17;;;;;;;59.33;33.20;;;;;;;16.81;100.00;101171.22;6157176;23;20005;-77
2021/09/15 01:12:44;;;;;;;51.15;31.55;;;;;;;16.76;100.00;101173.03;6183011;23;20008;-76
2021/09/15 01:15:10;;;;;;;53.20;31.90;;;;;;;16.72;100.00;101162.41;6182848;23;20007;-76
2021/09/15 01:17:35;;;;;;;54.33;33.92;;;;;;;16.67;100.00;101165.97;6183614;23;20013;-80
2021/09/15 01:20:04;;;;;;;52.30;31.80;;;;;;;16.64;100.00;101175.72;6182999;23;20005;-76
2021/09/15 01:22:33;;;;;;;57.40;34.17;;;;;;;16.60;100.00;101182.81;6182250;23;20017;-76
2021/09/15 01:24:59;;;;;;;58.97;32.72;;;;;;;16.57;100.00;101173.97;6182651;23;20040;-77
2021/09/15 01:27:31;;;;;;;54.92;32.50;;;;;;;16.51;100.00;101170.44;6183310;23;20009;-77
2021/09/15 01:29:58;;;;;;;56.23;32.20;;;;;;;16.45;100.00;101167.78;6183191;23;20009;-77
2021/09/15 01:32:26;;;;;;;53.90;31.20;;;;;;;16.42;100.00;101170.47;6182518;23;20012;-77
2021/09/15 01:34:52;;;;;;;55.17;33.15;;;;;;;16.38;100.00;101168.72;6156292;23;19997;-78
2021/09/15 01:37:19;;;;;;;66.90;34.38;;;;;;;16.37;100.00;101164.28;6182559;23;20005;-76
2021/09/15 01:39:46;;;;;;;55.70;33.45;;;;;;;16.33;100.00;101162.50;6182399;23;20437;-78
2021/09/15 01:42:14;;;;;;;62.35;35.47;;;;;;;16.31;100.00;101166.97;6184651;23;20005;-77
2021/09/15 01:44:45;;;;;;;64.20;36.05;;;;;;;16.29;100.00;101164.31;6185908;23;20005;-77
2021/09/15 01:47:13;;;;;;;70.10;36.55;;;;;;;16.27;100.00;101165.19;6184963;23;20017;-78
2021/09/15 01:49:44;;;;;;;74.55;41.17;;;;;;;16.23;100.00;101160.78;6185083;23;20345;-78
2021/09/15 01:52:12;;;;;;;72.45;36.90;;;;;;;16.25;100.00;101162.56;6184302;23;20055;-77
2021/09/15 01:54:44;;;;;;;83.55;44.33;;;;;;;16.27;100.00;101159.88;6185260;23;20012;-77
2021/09/15 01:57:13;;;;;;;87.47;44.30;;;;;;;16.29;100.00;101160.75;6184507;23;20005;-78
2021/09/15 01:59:42;;;;;;;88.30;44.15;;;;;;;16.30;100.00;101155.44;6183586;23;20055;-77
2021/09/15 02:02:11;;;;;;;97.63;47.90;;;;;;;16.34;100.00;101159.84;6178693;23;20055;-78
2021/09/15 02:04:41;;;;;;;84.75;42.42;;;;;;;16.37;100.00;101155.44;6184562;23;20005;-76
2021/09/15 02:07:09;;;;;;;84.38;45.28;;;;;;;16.37;100.00;101156.31;6184634;23;20084;-76
2021/09/15 02:09:35;;;;;;;87.80;42.78;;;;;;;16.34;100.00;101151.00;6184943;23;20012;-78
2021/09/15 02:12:05;;;;;;;80.40;41.35;;;;;;;16.31;100.00;101151.03;6183355;23;20001;-77
2021/09/15 02:14:48;;;;;;;79.47;40.53;;;;;;;16.24;100.00;101150.16;6184500;23;20028;-77
2021/09/15 02:17:17;;;;;;;;;;;;;;;16.16;100.00;101136.88;6183499;23;20008;-77
2021/09/15 02:19:42;;;;;;;63.67;35.35;;;;;;;16.10;100.00;101147.53;6184162;23;19932;-78
2021/09/15 02:22:17;;;;;;;77.55;37.95;;;;;;;16.03;100.00;101143.09;6184178;23;20005;-77
2021/09/15 02:24:45;;;;;;;73.78;38.78;;;;;;;15.99;100.00;101149.28;6184841;23;20084;-78
2021/09/15 02:27:20;;;;;;;71.03;37.72;;;;;;;15.94;100.00;101140.44;6184562;23;20005;-76
2021/09/15 02:29:46;;;;;;;69.18;37.72;;;;;;;15.90;100.00;101146.63;6184815;23;20083;-80
2021/09/15 02:32:12;;;;;;;72.00;37.25;;;;;;;15.87;100.00;101152.88;6184210;23;20432;-78
2021/09/15 02:34:46;;;;;;;75.28;39.08;;;;;;;15.87;100.00;101146.66;6157801;23;20047;-77
2021/09/15 02:37:11;;;;;;;77.78;38.67;;;;;;;15.81;100.00;101145.75;6184458;23;20013;-78
2021/09/15 02:39:37;;;;;;;80.70;40.55;;;;;;;15.80;100.00;101149.31;6184454;23;20005;-78
2021/09/15 02:42:03;;;;;;;77.82;38.28;;;;;;;15.78;100.00;101144.88;6184185;23;20063;-76
2021/09/15 02:44:28;;;;;;;85.32;40.58;;;;;;;15.73;100.00;101139.53;6184180;23;20014;-76
2021/09/15 02:46:53;;;;;;;77.75;41.13;;;;;;;15.71;100.00;101148.38;6183759;23;20021;-78
2021/09/15 02:49:27;;;;;;;80.40;39.85;;;;;;;15.69;100.00;101145.72;6183018;23;20486;-77
2021/09/15 02:51:55;;;;;;;76.40;37.92;;;;;;;15.66;100.00;101140.44;6183001;23;20009;-78
2021/09/15 02:54:21;;;;;;;72.57;39.70;;;;;;;15.65;100.00;101136.91;6183257;23;20055;-79
2021/09/15 02:56:47;;;;;;;74.85;39.30;;;;;;;15.63;100.00;101135.13;6184263;23;19997;-76
2021/09/15 02:59:12;;;;;;;80.07;41.08;;;;;;;15.61;100.00;101126.28;6183874;23;20005;-76
2021/09/15 03:01:43;;;;;;;78.68;40.00;;;;;;;15.60;100.00;101129.81;6180911;23;20081;-77
2021/09/15 03:04:09;;;;;;;69.78;37.80;;;;;;;15.57;100.00;101135.13;6183423;23;20080;-77
2021/09/15 03:06:34;;;;;;;87.38;41.45;;;;;;;15.56;100.00;101136.91;6182727;23;20086;-77
2021/09/15 03:09:06;;;;;;;90.50;43.85;;;;;;;15.56;100.00;101133.34;6183205;23;20005;-78
2021/09/15 03:11:33;;;;;;;89.95;43.75;;;;;;;15.54;100.00;101125.38;6184457;23;20435;-76
2021/09/15 03:14:05;;;;;;;90.25;45.25;;;;;;;15.52;100.00;101128.03;6183389;23;20096;-77
2021/09/15 03:16:31;;;;;;;85.65;43.15;;;;;;;15.50;100.00;101134.22;6182626;23;20009;-78
2021/09/15 03:18:57;;;;;;;94.97;45.53;;;;;;;15.48;100.00;101126.28;6184427;23;20008;-77
2021/09/15 03:21:23;;;;;;;93.35;44.95;;;;;;;15.50;100.00;101124.53;6183502;23;20432;-78
2021/09/15 03:23:51;;;;;;;118.95;48.85;;;;;;;15.59;100.00;101130.72;6182475;23;20008;-78
2021/09/15 03:26:17;;;;;;;126.82;51.78;;;;;;;15.67;100.00;101121.88;6184455;23;20016;-77
2021/09/15 03:28:42;;;;;;;129.00;54.20;;;;;;;15.80;100.00;101119.22;6184087;23;20325;-77
2021/09/15 03:31:11;;;;;;;136.43;59.25;;;;;;;15.93;100.00;101115.69;6182435;23;20413;-77
2021/09/15 03:33:36;;;;;;;140.93;61.08;;;;;;;16.03;100.00;101108.59;6184424;23;20009;-77
2021/09/15 03:36:02;;;;;;;128.35;55.80;;;;;;;16.10;100.00;101104.16;6183410;23;20020;-76
2021/09/15 03:38:28;;;;;;;122.95;54.28;;;;;;;16.10;100.00;101105.06;6183698;23;20039;-77
2021/09/15 03:40:53;;;;;;;119.50;54.42;;;;;;;16.07;100.00;101110.34;6183179;23;20108;-76
2021/09/15 03:43:19;;;;;;;112.75;51.22;;;;;;;16.01;100.00;101105.06;6182383;23;20009;-78
2021/09/15 03:45:45;;;;;;;109.43;49.25;;;;;;;15.97;100.00;101113.94;6183835;23;20316;-77
2021/09/15 03:48:10;;;;;;;98.25;46.42;;;;;;;15.94;100.00;101113.91;6184023;23;20009;-78
2021/09/15 03:50:36;;;;;;;117.63;52.38;;;;;;;15.90;100.00;101117.44;6183012;23;20001;-76
2021/09/15 03:53:01;;;;;;;119.22;54.15;;;;;;;15.85;100.00;101120.13;6158031;23;20071;-76
2021/09/15 03:55:27;;;;;;;125.72;54.80;;;;;;;15.82;100.00;101126.31;6182963;23;20005;-77
2021/09/15 03:57:53;;;;;;;122.28;53.75;;;;;;;15.82;100.00;101123.66;6184075;23;20031;-77
2021/09/15 04:00:19;;;;;;;126.45;55.97;;;;;;;15.81;100.00;101134.28;6150631;23;20015;-78
2021/09/15 04:02:44;;;;;;;121.53;54.92;;;;;;;15.78;100.00;101129.81;6183832;23;20008;-77
2021/09/15 04:05:10;;;;;;;122.47;52.97;;;;;;;15.76;100.00;101123.66;6183165;23;20004;-78
2021/09/15 04:08:04;;;;;;;124.35;55.17;;;;;;;15.73;100.00;101120.97;6183436;23;20012;-77
2021/09/15 04:10:34;;;;;;;123.22;52.97;;;;;;;15.71;100.00;101122.75;6174878;23;20016;-77
2021/09/15 04:12:59;;;;;;;137.90;55.97;;;;;;;15.69;100.00;101127.16;6184549;23;20012;-77
2021/09/15 04:15:26;;;;;;;128.40;53.38;;;;;;;15.67;100.00;101131.59;6183575;23;20000;-76
2021/09/15 04:17:51;;;;;;;127.35;54.35;;;;;;;15.64;100.00;101126.28;6182351;23;20424;-77
2021/09/15 04:20:21;;;;;;;136.00;55.05;;;;;;;15.63;100.00;101129.84;6183068;23;20007;-77
2021/09/15 04:22:47;;;;;;;136.48;55.92;;;;;;;15.61;100.00;101127.19;6183619;23;20013;-78
2021/09/15 04:33:28;;;;;;;141.73;55.88;;;;;;;15.52;100.00;101122.75;6183644;23;19928;-77
2021/09/15 04:36:01;;;;;;;133.30;56.10;;;;;;;15.50;100.00;101111.28;6182037;23;20001;-76
2021/09/15 04:38:27;;;;;;;127.55;54.58;;;;;;;15.47;100.00;101121.84;6181621;23;20013;-77
2021/09/15 04:40:52;;;;;;;146.85;57.60;;;;;;;15.48;100.00;101115.66;6183545;23;20015;-78
2021/09/15 04:43:18;;;;;;;153.93;59.97;;;;;;;15.50;100.00;101118.31;6183396;23;20005;-78
2021/09/15 04:45:44;;;;;;;154.18;61.97;;;;;;;15.51;100.00;101117.44;6183394;23;20017;-77
2021/09/15 04:48:10;;;;;;;155.13;61.33;;;;;;;15.50;100.00;101119.22;6183165;23;20017;-77
2021/09/15 04:50:35;;;;;;;155.20;60.75;;;;;;;15.50;100.00;101124.53;6183951;23;20425;-78
2021/09/15 04:53:22;;;;;;;140.35;58.92;;;;;;;15.49;100.00;101122.75;6180561;23;20009;-76
2021/09/15 04:55:48;;;;;;;151.05;59.55;;;;;;;15.51;100.00;101120.09;6153250;23;20121;-77
2021/09/15 04:58:14;;;;;;;149.00;57.85;;;;;;;15.55;100.00;101115.69;6153085;23;20006;-77
2021/09/15 05:00:50;;;;;;;169.77;62.40;;;;;;;15.57;100.00;101124.50;6147780;23;20018;-77
2021/09/15 05:03:15;;;;;;;155.35;62.10;;;;;;;15.58;100.00;101116.56;6153194;23;20092;-76
2021/09/15 05:05:42;;;;;;;165.30;61.33;;;;;;;15.60;100.00;101116.53;6153576;23;20080;-77
2021/09/15 05:08:07;;;;;;;171.23;64.40;;;;;;;15.60;100.00;101111.25;6154829;23;20002;-77
